Time;durP1;ratioP1;P1;durP2;ratioP2;P2;SDS_P1;SDS_P2;PMS_P1;PMS_P2;Temp;Humidity;BMP_temperature;BMP_pressure;BME280_temperature;BME280_humidity;BME280_pressure;Samples;Min_cycle;Max_cycle;Signal;HPM_P1;HPM_P2
2023/12/06 00:00:19;;;;;;;13.30;8.32;;;;;;;;;;2094732;28;20025;-76
2023/12/06 00:01:39;;;;;;;12.20;7.85;;;;;;;;;;2095873;28;20044;-76
2023/12/06 00:02:58;;;;;;;10.88;7.80;;;;;;;;;;2094841;28;20068;-76
2023/12/06 00:04:17;;;;;;;12.20;8.13;;;;;;;;;;2095460;28;20029;-77
2023/12/06 00:05:37;;;;;;;15.90;8.40;;;;;;;;;;2095623;28;20436;-76
2023/12/06 00:06:56;;;;;;;12.10;8.23;;;;;;;;;;2096490;28;20028;-76
2023/12/06 00:08:15;;;;;;;14.70;8.82;;;;;;;;;;2095382;28;20036;-77
2023/12/06 00:09:34;;;;;;;15.52;9.43;;;;;;;;;;2093353;28;20024;-77
2023/12/06 00:10:53;;;;;;;15.63;8.57;;;;;;;;;;2092579;28;20035;-78
2023/12/06 00:12:12;;;;;;;14.23;8.68;;;;;;;;;;2095474;28;20390;-77
2023/12/06 00:13:31;;;;;;;13.20;8.68;;;;;;;;;;2095628;28;20581;-77
2023/12/06 00:14:50;;;;;;;14.45;8.93;;;;;;;;;;2095062;28;20052;-77
2023/12/06 00:16:09;;;;;;;14.70;8.82;;;;;;;;;;2095466;28;20058;-76
2023/12/06 00:17:28;;;;;;;14.68;9.07;;;;;;;;;;2096295;28;20481;-77
2023/12/06 00:18:49;;;;;;;14.65;9.80;;;;;;;;;;2091422;28;20029;-77
2023/12/06 00:20:08;;;;;;;13.30;8.35;;;;;;;;;;2089523;28;20192;-77
2023/12/06 00:21:27;;;;;;;14.63;9.38;;;;;;;;;;2094114;28;20024;-77
2023/12/06 00:22:46;;;;;;;13.50;8.50;;;;;;;;;;2093040;28;20040;-77
2023/12/06 00:24:05;;;;;;;16.17;9.38;;;;;;;;;;2100708;28;20024;-77
2023/12/06 00:25:24;;;;;;;15.68;9.15;;;;;;;;;;2093078;28;20029;-77
2023/12/06 00:26:43;;;;;;;11.68;8.73;;;;;;;;;;2095230;28;20059;-76
2023/12/06 00:28:02;;;;;;;14.80;8.88;;;;;;;;;;2095121;28;20072;-77
2023/12/06 00:29:21;;;;;;;12.15;8.77;;;;;;;;;;2095725;28;20040;-77
2023/12/06 00:30:40;;;;;;;12.73;8.25;;;;;;;;;;2094759;28;20025;-77
2023/12/06 00:31:59;;;;;;;13.15;9.18;;;;;;;;;;2094441;28;20603;-76
2023/12/06 00:33:17;;;;;;;14.07;9.27;;;;;;;;;;2092407;28;20489;-76
2023/12/06 00:34:36;;;;;;;12.70;9.07;;;;;;;;;;2085763;28;20103;-76
2023/12/06 00:35:55;;;;;;;14.02;9.18;;;;;;;;;;2096172;28;20037;-77
2023/12/06 00:37:14;;;;;;;11.57;8.10;;;;;;;;;;2094559;28;20036;-76
2023/12/06 00:38:33;;;;;;;14.02;8.60;;;;;;;;;;2088593;28;20040;-76
2023/12/06 00:39:52;;;;;;;15.00;8.95;;;;;;;;;;2094638;28;20029;-77
2023/12/06 00:41:11;;;;;;;14.10;9.05;;;;;;;;;;2096564;28;20029;-76
2023/12/06 00:42:30;;;;;;;14.52;8.77;;;;;;;;;;2095591;28;20036;-78
2023/12/06 00:43:51;;;;;;;15.32;9.63;;;;;;;;;;2095953;28;20028;-77
2023/12/06 00:45:10;;;;;;;14.25;9.52;;;;;;;;;;2093501;28;20036;-77
2023/12/06 00:46:29;;;;;;;15.65;9.90;;;;;;;;;;2092670;28;20041;-76
2023/12/06 00:47:48;;;;;;;13.68;8.60;;;;;;;;;;2096385;28;21350;-77
2023/12/06 00:49:07;;;;;;;16.38;9.07;;;;;;;;;;2094943;28;20481;-76
2023/12/06 00:50:26;;;;;;;14.90;9.18;;;;;;;;;;2096418;28;20017;-76
2023/12/06 00:51:45;;;;;;;12.70;8.68;;;;;;;;;;2096308;28;20032;-77
2023/12/06 00:53:04;;;;;;;13.15;8.60;;;;;;;;;;2096399;28;20397;-77
2023/12/06 00:54:23;;;;;;;14.98;8.80;;;;;;;;;;2093171;28;20028;-76
2023/12/06 00:55:42;;;;;;;14.30;8.73;;;;;;;;;;2094013;28;20405;-76
2023/12/06 00:57:01;;;;;;;13.02;8.45;;;;;;;;;;2096268;28;20040;-76
2023/12/06 00:58:20;;;;;;;14.95;9.05;;;;;;;;;;2094072;28;20151;-76
2023/12/06 00:59:39;;;;;;;13.52;8.55;;;;;;;;;;2095270;28;20028;-75
2023/12/06 01:00:58;;;;;;;12.25;8.63;;;;;;;;;;2092254;28;20710;-76
2023/12/06 01:02:17;;;;;;;12.50;8.05;;;;;;;;;;2095750;28;20040;-76
2023/12/06 01:03:37;;;;;;;16.70;8.35;;;;;;;;;;2094876;28;20041;-76
2023/12/06 01:04:56;;;;;;;12.02;8.38;;;;;;;;;;2095893;28;20040;-76
2023/12/06 01:06:15;;;;;;;15.30;8.82;;;;;;;;;;2096911;28;20053;-75
2023/12/06 01:07:34;;;;;;;14.10;8.75;;;;;;;;;;2094884;28;20450;-77
2023/12/06 01:08:53;;;;;;;11.95;8.30;;;;;;;;;;2095719;28;20502;-77
2023/12/06 01:10:12;;;;;;;12.73;8.40;;;;;;;;;;2095535;28;20463;-77
2023/12/06 01:11:31;;;;;;;11.80;8.38;;;;;;;;;;2091539;28;20486;-77
2023/12/06 01:12:50;;;;;;;12.90;8.00;;;;;;;;;;2093143;28;20033;-76
2023/12/06 01:14:09;;;;;;;13.65;8.55;;;;;;;;;;2092375;28;20029;-76
2023/12/06 01:15:28;;;;;;;14.35;8.68;;;;;;;;;;2093903;28;20115;-77
2023/12/06 01:16:46;;;;;;;12.82;8.88;;;;;;;;;;2094631;28;20032;-77
2023/12/06 01:18:05;;;;;;;11.43;7.88;;;;;;;;;;2095739;28;20032;-77
2023/12/06 01:19:24;;;;;;;12.68;8.68;;;;;;;;;;2095662;28;20024;-77
2023/12/06 01:20:43;;;;;;;14.15;8.82;;;;;;;;;;2094640;28;20028;-77
2023/12/06 01:22:02;;;;;;;9.80;7.55;;;;;;;;;;2094803;28;20033;-78
2023/12/06 01:23:21;;;;;;;12.48;8.20;;;;;;;;;;2093860;28;20485;-77
2023/12/06 01:24:40;;;;;;;12.77;8.20;;;;;;;;;;2096634;28;20036;-77
2023/12/06 01:25:59;;;;;;;12.52;8.23;;;;;;;;;;2098146;28;20188;-77
2023/12/06 01:27:18;;;;;;;11.25;8.18;;;;;;;;;;2101525;28;20096;-75
2023/12/06 01:28:37;;;;;;;14.00;8.75;;;;;;;;;;2106446;28;20076;-75
2023/12/06 01:29:56;;;;;;;14.68;8.57;;;;;;;;;;2101218;28;20032;-77
2023/12/06 01:31:15;;;;;;;16.02;8.80;;;;;;;;;;2104463;28;20024;-74
2023/12/06 01:32:35;;;;;;;11.95;8.25;;;;;;;;;;2103395;28;20032;-74
2023/12/06 01:33:54;;;;;;;13.05;8.23;;;;;;;;;;2100781;28;20081;-75
2023/12/06 01:35:13;;;;;;;13.82;8.55;;;;;;;;;;2107157;28;20036;-75
2023/12/06 01:36:32;;;;;;;13.30;8.32;;;;;;;;;;2107237;28;20060;-74
2023/12/06 01:37:51;;;;;;;12.00;8.63;;;;;;;;;;2105482;28;20033;-76
2023/12/06 01:39:10;;;;;;;13.63;8.88;;;;;;;;;;2104414;28;20021;-75
2023/12/06 01:40:29;;;;;;;17.23;8.98;;;;;;;;;;2102006;28;20028;-76
2023/12/06 01:41:48;;;;;;;17.77;9.98;;;;;;;;;;2105811;28;20076;-75
2023/12/06 01:43:08;;;;;;;15.45;9.93;;;;;;;;;;2109730;28;20028;-76
2023/12/06 01:44:27;;;;;;;17.85;9.80;;;;;;;;;;2103775;28;20033;-76
2023/12/06 01:45:46;;;;;;;15.10;9.70;;;;;;;;;;2104481;28;20074;-76
2023/12/06 01:47:05;;;;;;;14.07;9.45;;;;;;;;;;2103957;28;20040;-77
2023/12/06 01:48:25;;;;;;;14.73;8.65;;;;;;;;;;2094964;28;20036;-77
2023/12/06 01:49:45;;;;;;;15.43;9.27;;;;;;;;;;2102479;28;20055;-77
2023/12/06 01:51:04;;;;;;;14.27;9.43;;;;;;;;;;2094291;28;20036;-76
2023/12/06 01:52:23;;;;;;;15.00;9.57;;;;;;;;;;2093283;28;20037;-77
2023/12/06 01:53:43;;;;;;;15.07;9.98;;;;;;;;;;2094314;28;20032;-78
2023/12/06 01:55:03;;;;;;;16.23;9.60;;;;;;;;;;2094617;28;20068;-77
2023/12/06 01:56:22;;;;;;;16.20;9.68;;;;;;;;;;2094519;28;20032;-78
2023/12/06 01:57:41;;;;;;;18.10;9.48;;;;;;;;;;2093941;28;20037;-77
2023/12/06 01:59:00;;;;;;;13.82;8.85;;;;;;;;;;2093866;28;20025;-77
2023/12/06 02:00:19;;;;;;;19.63;9.70;;;;;;;;;;2091691;28;20063;-78
2023/12/06 02:01:38;;;;;;;12.45;8.60;;;;;;;;;;2091048;28;20037;-78
2023/12/06 02:02:58;;;;;;;13.90;8.80;;;;;;;;;;2094713;28;20494;-78
2023/12/06 02:04:17;;;;;;;17.67;10.05;;;;;;;;;;2094159;28;20028;-78
2023/12/06 02:05:36;;;;;;;17.25;10.40;;;;;;;;;;2093443;28;20398;-78
2023/12/06 02:06:55;;;;;;;17.40;9.73;;;;;;;;;;2094061;28;20072;-78
2023/12/06 02:08:14;;;;;;;19.10;10.57;;;;;;;;;;2095933;28;20033;-78
2023/12/06 02:09:33;;;;;;;22.52;10.15;;;;;;;;;;2095059;28;20040;-78
2023/12/06 02:10:52;;;;;;;19.15;10.60;;;;;;;;;;2093209;28;20032;-78
2023/12/06 02:12:11;;;;;;;21.80;10.65;;;;;;;;;;2098821;28;20044;-77
2023/12/06 02:13:30;;;;;;;19.25;10.88;;;;;;;;;;2099377;28;20036;-78
2023/12/06 02:14:49;;;;;;;19.50;10.95;;;;;;;;;;2094806;28;20028;-78
2023/12/06 02:16:08;;;;;;;16.55;10.38;;;;;;;;;;2093616;28;20490;-78
2023/12/06 02:17:28;;;;;;;18.48;10.85;;;;;;;;;;2094150;28;21495;-78
2023/12/06 02:18:47;;;;;;;18.38;10.20;;;;;;;;;;2091665;28;20060;-78
2023/12/06 02:20:07;;;;;;;18.35;10.18;;;;;;;;;;2091355;28;20036;-76
2023/12/06 02:21:26;;;;;;;18.10;10.73;;;;;;;;;;2095631;28;20040;-76
2023/12/06 02:22:45;;;;;;;21.83;10.88;;;;;;;;;;2093939;28;20029;-78
2023/12/06 02:24:05;;;;;;;17.83;10.30;;;;;;;;;;2089803;28;20033;-75
2023/12/06 02:25:24;;;;;;;18.42;10.15;;;;;;;;;;2095792;28;20028;-77
2023/12/06 02:26:43;;;;;;;20.00;10.27;;;;;;;;;;2096496;28;20037;-77
2023/12/06 02:28:02;;;;;;;17.10;9.85;;;;;;;;;;2096542;28;20036;-77
2023/12/06 02:29:23;;;;;;;18.88;10.43;;;;;;;;;;2095239;28;20025;-76
2023/12/06 02:30:41;;;;;;;16.02;10.00;;;;;;;;;;2093632;28;20025;-76
2023/12/06 02:32:00;;;;;;;16.98;9.75;;;;;;;;;;2095219;28;20041;-76
2023/12/06 02:33:20;;;;;;;16.23;9.02;;;;;;;;;;2096469;28;20546;-77
2023/12/06 02:34:40;;;;;;;14.38;8.48;;;;;;;;;;2095053;28;20032;-76
2023/12/06 02:36:01;;;;;;;15.07;8.73;;;;;;;;;;2095407;28;20036;-76
2023/12/06 02:37:22;;;;;;;14.70;9.30;;;;;;;;;;2098357;28;20533;-77
2023/12/06 02:38:42;;;;;;;16.23;9.18;;;;;;;;;;2096338;28;20032;-76
2023/12/06 02:40:04;;;;;;;13.95;9.25;;;;;;;;;;2096557;28;20074;-76
2023/12/06 02:41:24;;;;;;;18.08;9.63;;;;;;;;;;2097466;28;20033;-77
2023/12/06 02:42:43;;;;;;;15.35;9.75;;;;;;;;;;2096148;28;20850;-77
2023/12/06 02:44:02;;;;;;;17.25;9.63;;;;;;;;;;2096070;28;20413;-76
2023/12/06 02:45:20;;;;;;;14.82;9.25;;;;;;;;;;2094952;28;20048;-76
2023/12/06 02:46:39;;;;;;;17.73;9.45;;;;;;;;;;2096438;28;20036;-77
2023/12/06 02:47:58;;;;;;;14.25;8.95;;;;;;;;;;2095169;28;20058;-77
2023/12/06 02:49:17;;;;;;;12.45;8.27;;;;;;;;;;2093234;28;20036;-77
2023/12/06 02:50:36;;;;;;;11.40;7.80;;;;;;;;;;2096339;28;20033;-78
2023/12/06 02:51:55;;;;;;;13.45;8.13;;;;;;;;;;2096887;28;20051;-77
2023/12/06 02:53:14;;;;;;;13.18;8.20;;;;;;;;;;2093609;28;20115;-77
2023/12/06 02:54:33;;;;;;;13.75;8.20;;;;;;;;;;2093704;28;20111;-76
2023/12/06 02:55:52;;;;;;;15.63;8.50;;;;;;;;;;2094585;28;20040;-77
2023/12/06 02:57:11;;;;;;;13.45;8.68;;;;;;;;;;2093830;28;20477;-77
2023/12/06 02:58:31;;;;;;;13.40;8.40;;;;;;;;;;2091321;28;20063;-76
2023/12/06 02:59:49;;;;;;;11.65;7.25;;;;;;;;;;2094167;28;20056;-76
2023/12/06 03:01:09;;;;;;;13.38;7.97;;;;;;;;;;2094791;28;20028;-76
2023/12/06 03:02:27;;;;;;;11.57;7.45;;;;;;;;;;2093629;28;21169;-77
2023/12/06 03:03:46;;;;;;;13.07;7.68;;;;;;;;;;2098194;28;20028;-75
2023/12/06 03:05:05;;;;;;;9.95;7.28;;;;;;;;;;2097562;28;20025;-75
2023/12/06 03:06:24;;;;;;;12.90;8.18;;;;;;;;;;2095068;28;20024;-78
2023/12/06 03:07:43;;;;;;;10.77;6.88;;;;;;;;;;2083245;28;20469;-77
2023/12/06 03:09:02;;;;;;;12.18;6.97;;;;;;;;;;2091739;28;20045;-77
2023/12/06 03:10:21;;;;;;;12.25;8.00;;;;;;;;;;2097044;28;20033;-77
2023/12/06 03:11:40;;;;;;;12.15;7.43;;;;;;;;;;2094665;28;20111;-77
2023/12/06 03:12:59;;;;;;;14.63;8.10;;;;;;;;;;2093798;28;20146;-77
2023/12/06 03:14:18;;;;;;;10.32;7.43;;;;;;;;;;2093398;28;20040;-78
2023/12/06 03:15:37;;;;;;;16.13;7.78;;;;;;;;;;2093399;28;21456;-78
2023/12/06 03:16:57;;;;;;;13.90;7.75;;;;;;;;;;2097152;28;20036;-77
2023/12/06 03:18:16;;;;;;;12.80;7.80;;;;;;;;;;2095309;28;20037;-77
2023/12/06 03:19:35;;;;;;;10.38;6.72;;;;;;;;;;2096362;28;20029;-76
2023/12/06 03:20:54;;;;;;;11.40;7.50;;;;;;;;;;2096690;28;20028;-77
2023/12/06 03:22:13;;;;;;;10.73;7.28;;;;;;;;;;2093537;28;20135;-77
2023/12/06 03:23:31;;;;;;;10.25;7.10;;;;;;;;;;2090597;28;20513;-76
2023/12/06 03:24:50;;;;;;;11.30;7.60;;;;;;;;;;2094889;28;20289;-77
2023/12/06 03:26:09;;;;;;;9.55;6.85;;;;;;;;;;2092247;28;20028;-76
2023/12/06 03:27:28;;;;;;;10.90;6.47;;;;;;;;;;2095760;28;20040;-77
2023/12/06 03:28:47;;;;;;;8.88;6.45;;;;;;;;;;2095298;28;20069;-77
2023/12/06 03:30:06;;;;;;;11.00;7.07;;;;;;;;;;2093967;28;20401;-76
2023/12/06 03:31:25;;;;;;;10.60;7.00;;;;;;;;;;2095106;28;20144;-76
2023/12/06 03:32:44;;;;;;;13.30;7.05;;;;;;;;;;2095976;28;20028;-76
2023/12/06 03:34:03;;;;;;;9.52;6.60;;;;;;;;;;2094990;28;20032;-76
2023/12/06 03:35:22;;;;;;;10.15;6.55;;;;;;;;;;2092975;28;20041;-76
2023/12/06 03:36:41;;;;;;;13.27;7.78;;;;;;;;;;2095732;28;20048;-76
2023/12/06 03:38:00;;;;;;;11.93;7.35;;;;;;;;;;2093496;28;20037;-76
2023/12/06 03:39:19;;;;;;;10.40;7.28;;;;;;;;;;2089895;28;20036;-76
2023/12/06 03:40:39;;;;;;;10.07;6.95;;;;;;;;;;2094182;28;20033;-77
2023/12/06 03:41:59;;;;;;;9.70;7.05;;;;;;;;;;2095706;28;20029;-76
2023/12/06 03:43:18;;;;;;;10.02;7.07;;;;;;;;;;2095724;28;20493;-77
2023/12/06 03:44:37;;;;;;;10.63;7.30;;;;;;;;;;2095780;28;20131;-77
2023/12/06 03:45:56;;;;;;;13.40;7.70;;;;;;;;;;2091746;28;20044;-77
2023/12/06 03:47:15;;;;;;;13.15;7.13;;;;;;;;;;2095745;28;20036;-77
2023/12/06 03:48:34;;;;;;;15.15;7.13;;;;;;;;;;2090638;28;20040;-77
2023/12/06 03:49:53;;;;;;;11.70;7.57;;;;;;;;;;2095202;28;20072;-76
2023/12/06 03:51:12;;;;;;;10.35;6.85;;;;;;;;;;2095869;28;20390;-76
2023/12/06 03:52:31;;;;;;;15.98;7.63;;;;;;;;;;2097417;28;20036;-75
2023/12/06 03:53:49;;;;;;;10.38;6.53;;;;;;;;;;2092855;28;20443;-77
2023/12/06 03:55:08;;;;;;;12.52;7.38;;;;;;;;;;2092636;28;20048;-77
2023/12/06 03:56:27;;;;;;;13.65;7.85;;;;;;;;;;2094690;28;20021;-77
2023/12/06 03:57:47;;;;;;;10.88;6.57;;;;;;;;;;2094092;28;20670;-77
2023/12/06 03:59:06;;;;;;;11.88;7.30;;;;;;;;;;2095937;28;20040;-77
2023/12/06 04:00:25;;;;;;;13.07;6.47;;;;;;;;;;2093349;28;20449;-77
2023/12/06 04:01:44;;;;;;;11.80;6.93;;;;;;;;;;2095497;28;20040;-77
2023/12/06 04:03:07;;;;;;;12.27;7.10;;;;;;;;;;2094642;28;20028;-77
2023/12/06 04:04:26;;;;;;;9.73;7.13;;;;;;;;;;2096397;28;20127;-78
2023/12/06 04:05:45;;;;;;;10.75;6.82;;;;;;;;;;2093563;28;20125;-76
2023/12/06 04:07:04;;;;;;;9.02;6.68;;;;;;;;;;2094575;28;20028;-75
2023/12/06 04:08:23;;;;;;;9.85;6.18;;;;;;;;;;2093519;28;20036;-75
2023/12/06 04:09:42;;;;;;;11.48;7.65;;;;;;;;;;2091323;28;20032;-76
2023/12/06 04:11:01;;;;;;;9.13;6.20;;;;;;;;;;2095156;28;20036;-78
2023/12/06 04:12:20;;;;;;;10.77;6.88;;;;;;;;;;2095258;28;20032;-76
2023/12/06 04:13:39;;;;;;;11.90;6.70;;;;;;;;;;2097866;28;20093;-76
2023/12/06 04:14:58;;;;;;;11.57;6.90;;;;;;;;;;2091984;28;20032;-75
2023/12/06 04:16:17;;;;;;;11.88;6.72;;;;;;;;;;2092340;28;20032;-76
2023/12/06 04:17:36;;;;;;;16.20;7.85;;;;;;;;;;2101827;28;20118;-76
2023/12/06 04:18:55;;;;;;;10.85;7.30;;;;;;;;;;2097160;28;20024;-76
2023/12/06 04:20:15;;;;;;;13.93;7.75;;;;;;;;;;2091811;28;20032;-75
2023/12/06 04:21:34;;;;;;;10.52;6.93;;;;;;;;;;2095858;28;20509;-75
2023/12/06 04:22:53;;;;;;;13.50;7.57;;;;;;;;;;2094968;28;20041;-77
2023/12/06 04:24:12;;;;;;;17.35;7.28;;;;;;;;;;2096718;28;20068;-76
2023/12/06 04:25:31;;;;;;;10.00;7.13;;;;;;;;;;2091707;28;20044;-74
2023/12/06 04:26:50;;;;;;;14.50;7.47;;;;;;;;;;2087723;28;20962;-75
2023/12/06 04:28:09;;;;;;;12.07;6.78;;;;;;;;;;2096830;28;20024;-75
2023/12/06 04:29:29;;;;;;;9.05;7.22;;;;;;;;;;2095414;28;20025;-76
2023/12/06 04:30:48;;;;;;;10.57;7.07;;;;;;;;;;2094234;28;20416;-75
2023/12/06 04:32:07;;;;;;;11.02;6.63;;;;;;;;;;2095739;28;20029;-76
2023/12/06 04:33:26;;;;;;;11.82;7.15;;;;;;;;;;2095782;28;20040;-76
2023/12/06 04:34:52;;;;;;;11.05;7.18;;;;;;;;;;2095413;28;20668;-76
2023/12/06 04:36:12;;;;;;;13.70;7.70;;;;;;;;;;2096094;28;20041;-76
2023/12/06 04:37:31;;;;;;;8.77;6.35;;;;;;;;;;2096308;28;20445;-76
2023/12/06 04:38:50;;;;;;;11.32;7.40;;;;;;;;;;2095997;28;20037;-76
2023/12/06 04:40:09;;;;;;;15.45;7.63;;;;;;;;;;2092323;28;20084;-76
2023/12/06 04:41:28;;;;;;;10.20;7.03;;;;;;;;;;2095614;28;20427;-76
2023/12/06 04:42:47;;;;;;;11.13;6.82;;;;;;;;;;2095843;28;20124;-76
2023/12/06 04:44:06;;;;;;;12.20;6.75;;;;;;;;;;2096564;28;20103;-76
2023/12/06 04:45:25;;;;;;;11.57;6.70;;;;;;;;;;2095007;28;20037;-76
2023/12/06 04:46:43;;;;;;;13.13;7.53;;;;;;;;;;2093067;28;20051;-76
2023/12/06 04:48:02;;;;;;;11.60;7.30;;;;;;;;;;2096343;28;20033;-75
2023/12/06 04:49:21;;;;;;;11.57;7.45;;;;;;;;;;2096132;28;20025;-76
2023/12/06 04:50:41;;;;;;;12.38;6.53;;;;;;;;;;2096692;28;20301;-76
2023/12/06 04:52:01;;;;;;;10.40;7.20;;;;;;;;;;2097158;28;20270;-76
2023/12/06 04:53:19;;;;;;;13.07;7.20;;;;;;;;;;2095935;28;20032;-75
2023/12/06 04:54:39;;;;;;;13.38;7.13;;;;;;;;;;2096787;28;20111;-76
2023/12/06 04:55:58;;;;;;;10.35;6.15;;;;;;;;;;2094578;28;20045;-76
2023/12/06 04:57:17;;;;;;;11.35;7.30;;;;;;;;;;2092199;28;20020;-76
2023/12/06 04:58:37;;;;;;;9.90;6.43;;;;;;;;;;2105731;28;20025;-76
2023/12/06 04:59:56;;;;;;;8.75;5.85;;;;;;;;;;2105248;28;20025;-76
2023/12/06 05:01:15;;;;;;;8.48;5.85;;;;;;;;;;2105214;28;20012;-75
2023/12/06 05:02:34;;;;;;;9.68;6.22;;;;;;;;;;2104598;28;20589;-75
2023/12/06 05:03:53;;;;;;;11.23;7.03;;;;;;;;;;2097431;28;20040;-75
2023/12/06 05:05:13;;;;;;;9.15;6.13;;;;;;;;;;2097895;28;20123;-75
2023/12/06 05:06:32;;;;;;;9.23;6.93;;;;;;;;;;2098584;28;20024;-76
2023/12/06 05:07:51;;;;;;;10.95;6.60;;;;;;;;;;2098105;28;20045;-76
2023/12/06 05:09:10;;;;;;;9.90;6.65;;;;;;;;;;2101983;28;20024;-75
2023/12/06 05:10:29;;;;;;;12.13;6.93;;;;;;;;;;2103611;28;20119;-76
2023/12/06 05:11:49;;;;;;;9.15;6.43;;;;;;;;;;2105155;28;20017;-75
2023/12/06 05:13:08;;;;;;;11.20;6.20;;;;;;;;;;2103498;28;20016;-75
2023/12/06 05:14:28;;;;;;;10.02;6.35;;;;;;;;;;2104605;28;20036;-75
2023/12/06 05:15:47;;;;;;;8.80;6.60;;;;;;;;;;2100626;28;20025;-75
2023/12/06 05:17:06;;;;;;;9.73;6.97;;;;;;;;;;2104195;28;20032;-75
2023/12/06 05:18:25;;;;;;;9.27;6.40;;;;;;;;;;2102294;28;20044;-76
2023/12/06 05:19:44;;;;;;;9.05;6.50;;;;;;;;;;2096702;28;20501;-75
2023/12/06 05:21:03;;;;;;;9.23;6.38;;;;;;;;;;2091157;28;20517;-76
2023/12/06 05:22:22;;;;;;;10.02;6.60;;;;;;;;;;2094634;28;20021;-75
2023/12/06 05:23:41;;;;;;;15.07;6.85;;;;;;;;;;2096998;28;20029;-77
2023/12/06 05:25:00;;;;;;;9.65;6.32;;;;;;;;;;2091461;28;22831;-77
2023/12/06 05:26:19;;;;;;;11.38;7.07;;;;;;;;;;2094179;28;20512;-76
2023/12/06 05:27:38;;;;;;;11.68;6.72;;;;;;;;;;2092944;28;20071;-75
2023/12/06 05:29:00;;;;;;;8.40;5.63;;;;;;;;;;2095284;28;20037;-76
2023/12/06 05:30:19;;;;;;;9.75;6.53;;;;;;;;;;2093580;28;20032;-76
2023/12/06 05:31:38;;;;;;;11.95;6.80;;;;;;;;;;2096322;28;20021;-76
2023/12/06 05:32:57;;;;;;;14.48;6.85;;;;;;;;;;2095428;28;20032;-75
2023/12/06 05:34:16;;;;;;;9.85;6.88;;;;;;;;;;2094535;28;20032;-76
2023/12/06 05:35:35;;;;;;;12.85;7.13;;;;;;;;;;2093033;28;20072;-76
2023/12/06 05:36:54;;;;;;;13.20;7.78;;;;;;;;;;2095154;28;20024;-76
2023/12/06 05:38:13;;;;;;;12.32;7.55;;;;;;;;;;2093394;28;20407;-77
2023/12/06 05:39:33;;;;;;;12.65;7.25;;;;;;;;;;2096397;28;20037;-76
2023/12/06 05:40:54;;;;;;;12.40;6.78;;;;;;;;;;2094431;28;20513;-76
2023/12/06 05:42:14;;;;;;;11.65;7.28;;;;;;;;;;2096648;28;20389;-76
2023/12/06 05:43:33;;;;;;;10.93;6.80;;;;;;;;;;2092554;28;21076;-75
2023/12/06 05:44:52;;;;;;;12.23;7.25;;;;;;;;;;2095010;28;20049;-76
2023/12/06 05:46:11;;;;;;;12.23;7.00;;;;;;;;;;2092166;28;20025;-76
2023/12/06 05:47:31;;;;;;;12.05;6.85;;;;;;;;;;2089886;28;20036;-76
2023/12/06 05:48:50;;;;;;;9.90;6.88;;;;;;;;;;2095264;28;20629;-78
2023/12/06 05:50:13;;;;;;;15.18;7.53;;;;;;;;;;2091554;28;20713;-76
2023/12/06 05:51:31;;;;;;;12.20;7.80;;;;;;;;;;2095190;28;20029;-75
2023/12/06 05:52:50;;;;;;;14.55;7.88;;;;;;;;;;2095647;28;20024;-77
2023/12/06 05:54:09;;;;;;;11.52;6.80;;;;;;;;;;2095113;28;20553;-78
2023/12/06 05:55:28;;;;;;;11.40;6.70;;;;;;;;;;2092946;28;20041;-78
2023/12/06 05:56:47;;;;;;;15.10;8.05;;;;;;;;;;2098549;28;20094;-77
2023/12/06 05:58:06;;;;;;;12.73;7.70;;;;;;;;;;2100076;28;20489;-78
2023/12/06 05:59:25;;;;;;;12.98;7.80;;;;;;;;;;2096545;28;20037;-80
2023/12/06 06:00:44;;;;;;;18.30;10.45;;;;;;;;;;2096620;28;20442;-76
2023/12/06 06:02:03;;;;;;;17.67;8.23;;;;;;;;;;2097603;28;20033;-79
2023/12/06 06:03:22;;;;;;;12.48;7.90;;;;;;;;;;2098553;28;20036;-78
2023/12/06 06:04:41;;;;;;;8.93;6.10;;;;;;;;;;2097227;28;20025;-78
2023/12/06 06:06:07;;;;;;;10.25;6.90;;;;;;;;;;2096291;28;20032;-78
2023/12/06 06:07:26;;;;;;;9.38;6.13;;;;;;;;;;2101487;28;20040;-77
2023/12/06 06:08:45;;;;;;;13.27;6.20;;;;;;;;;;2104011;28;20048;-76
2023/12/06 06:10:04;;;;;;;9.60;6.40;;;;;;;;;;2089779;28;20112;-77
2023/12/06 06:11:23;;;;;;;10.55;6.18;;;;;;;;;;2092320;28;20544;-76
2023/12/06 06:12:42;;;;;;;10.73;6.65;;;;;;;;;;2097862;28;20036;-75
2023/12/06 06:14:01;;;;;;;9.40;6.05;;;;;;;;;;2096428;28;20388;-75
2023/12/06 06:15:20;;;;;;;8.63;5.80;;;;;;;;;;2095548;28;20017;-77
2023/12/06 06:16:39;;;;;;;12.77;6.68;;;;;;;;;;2096882;28;20025;-77
2023/12/06 06:17:59;;;;;;;12.20;6.75;;;;;;;;;;2094341;28;20500;-78
2023/12/06 06:19:17;;;;;;;10.07;5.95;;;;;;;;;;2092796;28;20028;-76
2023/12/06 06:20:36;;;;;;;10.93;6.65;;;;;;;;;;2096036;28;20522;-77
2023/12/06 06:21:55;;;;;;;14.80;6.90;;;;;;;;;;2092086;28;20045;-76
2023/12/06 06:23:14;;;;;;;9.45;5.65;;;;;;;;;;2096794;28;20028;-77
2023/12/06 06:24:34;;;;;;;9.05;5.65;;;;;;;;;;2100943;28;20637;-75
2023/12/06 06:25:53;;;;;;;10.15;6.55;;;;;;;;;;2100558;28;20040;-76
2023/12/06 06:27:12;;;;;;;9.82;6.35;;;;;;;;;;2096228;28;20020;-77
2023/12/06 06:28:31;;;;;;;9.13;6.15;;;;;;;;;;2093653;28;20044;-76
2023/12/06 06:29:50;;;;;;;9.55;6.43;;;;;;;;;;2098415;28;20381;-77
2023/12/06 06:31:09;;;;;;;9.40;5.82;;;;;;;;;;2095462;28;20099;-77
2023/12/06 06:32:28;;;;;;;8.82;5.68;;;;;;;;;;2094395;28;20032;-78
2023/12/06 06:33:47;;;;;;;9.35;5.90;;;;;;;;;;2090306;28;20028;-77
2023/12/06 06:35:07;;;;;;;10.50;6.38;;;;;;;;;;2089832;28;20032;-76
2023/12/06 06:36:26;;;;;;;10.02;5.57;;;;;;;;;;2091342;28;20037;-76
2023/12/06 06:37:46;;;;;;;8.80;5.45;;;;;;;;;;2089888;28;20036;-76
2023/12/06 06:39:06;;;;;;;8.70;6.13;;;;;;;;;;2089125;28;20040;-77
2023/12/06 06:40:25;;;;;;;7.70;5.70;;;;;;;;;;2090832;28;20032;-78
2023/12/06 06:41:44;;;;;;;9.13;5.82;;;;;;;;;;2091083;28;20060;-77
2023/12/06 06:43:05;;;;;;;10.07;5.82;;;;;;;;;;2091021;28;20029;-76
2023/12/06 06:44:25;;;;;;;8.65;5.13;;;;;;;;;;2090715;28;20497;-77
2023/12/06 06:45:44;;;;;;;7.93;5.53;;;;;;;;;;2092162;28;20037;-78
2023/12/06 06:47:03;;;;;;;7.60;5.28;;;;;;;;;;2094378;28;20036;-76
2023/12/06 06:48:22;;;;;;;8.65;6.13;;;;;;;;;;2092024;28;20024;-77
2023/12/06 06:49:41;;;;;;;13.10;5.20;;;;;;;;;;2094270;28;20032;-78
2023/12/06 06:51:00;;;;;;;9.35;6.35;;;;;;;;;;2092562;28;20036;-77
2023/12/06 06:52:19;;;;;;;10.60;6.32;;;;;;;;;;2094558;28;20052;-77
2023/12/06 06:53:38;;;;;;;9.70;6.25;;;;;;;;;;2093985;28;20029;-76
2023/12/06 06:54:57;;;;;;;10.35;6.22;;;;;;;;;;2091715;28;20405;-79
2023/12/06 06:56:17;;;;;;;9.80;6.10;;;;;;;;;;2093196;28;20036;-77
2023/12/06 06:57:37;;;;;;;8.73;5.72;;;;;;;;;;2093368;28;20032;-78
2023/12/06 06:58:56;;;;;;;8.65;6.05;;;;;;;;;;2090870;28;20029;-77
2023/12/06 07:00:16;;;;;;;8.77;6.72;;;;;;;;;;2094876;28;20382;-79
2023/12/06 07:01:35;;;;;;;12.10;5.80;;;;;;;;;;2100726;28;20032;-78
2023/12/06 07:02:54;;;;;;;7.47;5.75;;;;;;;;;;2095244;28;20448;-80
2023/12/06 07:04:13;;;;;;;9.93;6.05;;;;;;;;;;2091948;28;20029;-79
2023/12/06 07:05:33;;;;;;;7.63;5.47;;;;;;;;;;2092570;28;20295;-80
2023/12/06 07:06:53;;;;;;;9.00;6.10;;;;;;;;;;2097880;28;20041;-80
2023/12/06 07:08:12;;;;;;;7.93;5.68;;;;;;;;;;2095903;28;20116;-80
2023/12/06 07:09:31;;;;;;;10.23;6.82;;;;;;;;;;2096474;28;20033;-80
2023/12/06 07:10:50;;;;;;;11.90;6.15;;;;;;;;;;2092791;28;20032;-81
2023/12/06 07:12:09;;;;;;;7.18;5.50;;;;;;;;;;2096827;28;20024;-79
2023/12/06 07:13:29;;;;;;;8.43;5.78;;;;;;;;;;2094223;28;20084;-79
2023/12/06 07:14:47;;;;;;;10.23;5.88;;;;;;;;;;2090417;28;20029;-79
2023/12/06 07:16:07;;;;;;;9.38;6.00;;;;;;;;;;2093351;28;20033;-81
2023/12/06 07:17:26;;;;;;;9.98;6.13;;;;;;;;;;2092182;28;20160;-77
2023/12/06 07:18:45;;;;;;;7.35;5.78;;;;;;;;;;2096498;28;20170;-80
2023/12/06 07:20:04;;;;;;;8.65;5.75;;;;;;;;;;2097797;28;20037;-78
2023/12/06 07:21:23;;;;;;;9.93;5.97;;;;;;;;;;2096070;28;20024;-80
2023/12/06 07:22:43;;;;;;;6.25;5.32;;;;;;;;;;2095861;28;20029;-79
2023/12/06 07:24:02;;;;;;;9.25;5.82;;;;;;;;;;2098241;28;20032;-80
2023/12/06 07:25:21;;;;;;;8.80;5.82;;;;;;;;;;2095643;28;20511;-79
2023/12/06 07:26:42;;;;;;;9.82;5.63;;;;;;;;;;2088933;28;20029;-80
2023/12/06 07:28:02;;;;;;;6.57;4.93;;;;;;;;;;2098980;28;21150;-79
2023/12/06 07:29:21;;;;;;;8.63;6.15;;;;;;;;;;2095209;28;20052;-79
2023/12/06 07:30:40;;;;;;;7.22;5.65;;;;;;;;;;2096650;28;20076;-79
2023/12/06 07:31:59;;;;;;;8.18;5.40;;;;;;;;;;2095828;28;20032;-79
2023/12/06 07:33:19;;;;;;;8.05;5.85;;;;;;;;;;2094726;28;20025;-79
2023/12/06 07:34:38;;;;;;;8.25;5.97;;;;;;;;;;2090409;28;20659;-77
2023/12/06 07:35:57;;;;;;;11.82;6.45;;;;;;;;;;2092696;28;20028;-80
2023/12/06 07:37:16;;;;;;;9.90;6.20;;;;;;;;;;2088493;28;20108;-79
2023/12/06 07:38:35;;;;;;;9.63;6.05;;;;;;;;;;2091908;28;20448;-77
2023/12/06 07:39:54;;;;;;;11.82;6.20;;;;;;;;;;2093526;28;20041;-75
2023/12/06 07:41:13;;;;;;;11.57;7.15;;;;;;;;;;2099629;28;20446;-79
2023/12/06 07:42:32;;;;;;;14.77;6.32;;;;;;;;;;2092649;28;20108;-79
2023/12/06 07:43:52;;;;;;;11.30;6.00;;;;;;;;;;2090940;28;20029;-75
2023/12/06 07:45:11;;;;;;;12.52;6.85;;;;;;;;;;2089476;28;20025;-79
2023/12/06 07:46:30;;;;;;;11.10;7.05;;;;;;;;;;2096735;28;20029;-78
2023/12/06 07:47:49;;;;;;;9.57;6.43;;;;;;;;;;2093908;28;20032;-79
2023/12/06 07:49:08;;;;;;;11.18;6.97;;;;;;;;;;2092934;28;20056;-80